Time;durP1;ratioP1;P1;durP2;ratioP2;P2;SDS_P1;SDS_P2;PMS_P1;PMS_P2;Temp;Humidity;BMP_temperature;BMP_pressure;BME280_temperature;BME280_humidity;BME280_pressure;Samples;Min_cycle;Max_cycle;Signal;HPM_P1;HPM_P2
2023/01/26 00:01:11;;;;;;;34.17;16.90;;;;;;;1.41;100.00;101144.22;5053457;28;20253;-76
2023/01/26 00:03:38;;;;;;;30.67;17.30;;;;;;;1.35;100.00;101138.88;5051718;28;20228;-79
2023/01/26 00:06:05;;;;;;;33.28;16.20;;;;;;;1.29;100.00;101128.28;5052338;28;20186;-77
2023/01/26 00:08:37;;;;;;;34.22;16.67;;;;;;;1.32;100.00;101128.28;5053480;28;20201;-78
2023/01/26 00:11:04;;;;;;;32.72;15.65;;;;;;;1.32;100.00;101120.31;5052942;28;20243;-77
2023/01/26 00:13:31;;;;;;;31.77;16.50;;;;;;;1.28;100.00;101121.16;5054837;28;20212;-75
2023/01/26 00:15:57;;;;;;;31.20;15.35;;;;;;;1.30;100.00;101108.78;5037146;28;20213;-77
2023/01/26 00:18:24;;;;;;;25.90;13.40;;;;;;;1.16;100.00;101127.31;5044732;28;20216;-77
2023/01/26 00:20:55;;;;;;;31.38;14.82;;;;;;;1.07;100.00;101115.78;5054291;28;20212;-77
2023/01/26 00:23:22;;;;;;;32.20;16.05;;;;;;;1.15;100.00;101109.59;5035649;28;20200;-77
2023/01/26 00:25:50;;;;;;;26.90;14.50;;;;;;;1.12;100.00;101103.41;5035020;28;20211;-77
2023/01/26 00:28:16;;;;;;;30.63;14.70;;;;;;;1.01;100.00;101101.59;5031186;28;20209;-78
2023/01/26 00:30:43;;;;;;;30.27;14.75;;;;;;;0.93;100.00;101113.94;5059714;22;20291;-74
2023/01/26 00:33:12;;;;;;;28.65;15.35;;;;;;;0.76;100.00;101108.53;5052174;28;20198;-73
2023/01/26 00:35:43;;;;;;;33.30;15.82;;;;;;;0.77;100.00;101106.75;5055410;28;20199;-74
2023/01/26 00:38:09;;;;;;;31.77;16.05;;;;;;;0.80;100.00;101101.47;5054499;28;20203;-75
2023/01/26 00:40:36;;;;;;;33.80;15.00;;;;;;;0.79;100.00;101105.91;5053241;28;20623;-76
2023/01/26 00:43:04;;;;;;;33.28;15.57;;;;;;;0.83;100.00;101107.69;5018959;28;20207;-75
2023/01/26 00:45:31;;;;;;;31.30;15.75;;;;;;;0.73;100.00;101097.03;5017284;28;20690;-75
2023/01/26 00:47:59;;;;;;;29.73;14.85;;;;;;;0.78;100.00;101100.59;5023455;28;20216;-75
2023/01/26 00:50:25;;;;;;;29.63;14.98;;;;;;;0.81;100.00;101104.16;5038694;28;20229;-74
2023/01/26 00:52:52;;;;;;;28.90;14.70;;;;;;;0.72;100.00;101105.84;5024346;28;20236;-75
2023/01/26 00:55:19;;;;;;;28.88;14.93;;;;;;;0.77;100.00;101098.78;5029649;28;20663;-75
2023/01/26 00:57:46;;;;;;;31.05;16.02;;;;;;;0.75;100.00;101095.28;5027508;28;20292;-74
2023/01/26 01:00:16;;;;;;;27.75;15.35;;;;;;;0.65;100.00;101101.38;5036183;28;20283;-75
2023/01/26 01:02:43;;;;;;;30.20;14.93;;;;;;;0.62;100.00;101095.19;5021750;28;20225;-74
2023/01/26 01:05:10;;;;;;;31.60;16.27;;;;;;;0.66;100.00;101097.88;5032382;28;20207;-75
2023/01/26 01:07:37;;;;;;;32.95;15.85;;;;;;;0.68;100.00;101094.34;5034495;28;20270;-76
2023/01/26 01:10:04;;;;;;;33.53;16.23;;;;;;;0.71;100.00;101096.13;5005671;28;20231;-76
2023/01/26 01:12:30;;;;;;;33.00;15.52;;;;;;;0.66;100.00;101097.88;5031711;28;20231;-74
2023/01/26 01:14:57;;;;;;;38.97;17.08;;;;;;;0.66;100.00;101100.53;5038762;28;20283;-74
2023/01/26 01:17:25;;;;;;;34.75;17.08;;;;;;;0.78;100.00;101108.53;5041021;28;20215;-75
2023/01/26 01:19:51;;;;;;;34.72;16.15;;;;;;;0.77;100.00;101106.75;5020447;28;20204;-75
2023/01/26 01:22:18;;;;;;;27.38;14.80;;;;;;;0.90;100.00;101103.28;5023321;28;20644;-76
2023/01/26 01:24:45;;;;;;;29.05;16.38;;;;;;;0.99;100.00;101105.13;5027574;28;20240;-74
2023/01/26 01:27:11;;;;;;;33.10;15.50;;;;;;;1.06;100.00;101109.56;5019555;28;20749;-75
2023/01/26 01:29:38;;;;;;;32.78;16.70;;;;;;;1.09;100.00;101106.94;5017654;28;20210;-75
2023/01/26 01:32:04;;;;;;;30.83;15.93;;;;;;;1.17;100.00;101107.84;5020182;28;20228;-73
2023/01/26 01:34:32;;;;;;;29.08;15.40;;;;;;;1.14;100.00;101106.97;5019120;28;20204;-73
2023/01/26 01:36:59;;;;;;;26.05;12.82;;;;;;;1.10;100.00;101102.53;5019491;28;20363;-73
2023/01/26 01:39:25;;;;;;;26.27;14.00;;;;;;;1.07;100.00;101103.41;5023691;28;20203;-74
2023/01/26 01:41:52;;;;;;;23.08;13.27;;;;;;;1.00;100.00;101093.63;5033075;28;20289;-75
2023/01/26 01:44:21;;;;;;;29.77;14.00;;;;;;;0.93;100.00;101094.50;5026057;28;20287;-73
2023/01/26 01:46:53;;;;;;;27.70;13.73;;;;;;;0.90;100.00;101098.00;5022812;28;20265;-74
2023/01/26 01:49:22;;;;;;;30.55;15.60;;;;;;;1.01;100.00;101096.28;5020999;28;20196;-74
2023/01/26 01:51:54;;;;;;;31.70;15.35;;;;;;;1.12;100.00;101091.03;5023903;28;20644;-73
2023/01/26 01:54:26;;;;;;;26.15;14.20;;;;;;;1.17;100.00;101101.66;5029884;28;20204;-74
2023/01/26 01:56:55;;;;;;;28.90;14.18;;;;;;;1.15;100.00;101093.69;5037582;28;20198;-73
2023/01/26 01:59:22;;;;;;;28.50;15.07;;;;;;;1.20;100.00;101085.78;5038889;28;20294;-74
2023/01/26 02:01:51;;;;;;;32.03;14.85;;;;;;;1.16;100.00;101089.28;5035478;28;20243;-76
2023/01/26 02:04:20;;;;;;;27.42;14.60;;;;;;;1.16;100.00;101083.97;5039201;28;20203;-75
2023/01/26 02:06:49;;;;;;;30.45;14.77;;;;;;;1.23;100.00;101072.50;5041919;28;20210;-74
2023/01/26 02:12:08;;;;;;;32.10;16.00;;;;;;;1.20;100.00;101072.50;5038704;28;20234;-75
2023/01/26 02:14:35;;;;;;;34.42;17.38;;;;;;;1.22;100.00;101074.28;5042232;28;20204;-74
2023/01/26 02:17:02;;;;;;;27.55;15.18;;;;;;;1.29;100.00;101069.88;5035701;28;20281;-74
2023/01/26 02:19:38;;;;;;;30.52;15.13;;;;;;;1.20;100.00;101069.84;5027254;28;20223;-75
2023/01/26 02:22:14;;;;;;;30.67;15.10;;;;;;;1.19;100.00;101068.06;5019703;28;20231;-74
2023/01/26 02:24:42;;;;;;;26.48;13.93;;;;;;;1.24;100.00;101067.22;5023586;28;20204;-74
2023/01/26 02:27:10;;;;;;;23.17;13.30;;;;;;;1.25;100.00;101073.41;5036923;28;20199;-74
2023/01/26 02:29:37;;;;;;;25.45;12.80;;;;;;;1.27;100.00;101070.72;5024911;28;20205;-74
2023/01/26 02:32:04;;;;;;;19.23;10.95;;;;;;;1.21;100.00;101072.50;5017811;28;20719;-74
2023/01/26 02:34:31;;;;;;;21.15;10.93;;;;;;;1.18;100.00;101071.63;5019258;28;20198;-74
2023/01/26 02:36:59;;;;;;;25.85;12.07;;;;;;;1.18;100.00;101064.53;5040285;28;20204;-74
2023/01/26 02:39:38;;;;;;;21.55;11.57;;;;;;;1.14;100.00;101060.09;5058066;28;20230;-74
2023/01/26 02:44:50;;;;;;;17.55;9.70;;;;;;;1.15;100.00;101051.22;5028600;28;20206;-74
2023/01/26 02:47:19;;;;;;;17.75;10.27;;;;;;;1.16;100.00;101060.09;5038169;28;20207;-76
2023/01/26 02:49:49;;;;;;;15.98;9.80;;;;;;;1.16;100.00;101054.78;5038498;28;20203;-74
2023/01/26 02:52:16;;;;;;;22.73;11.15;;;;;;;1.10;100.00;101047.69;5039218;28;20235;-75
2023/01/26 02:57:27;;;;;;;20.77;10.00;;;;;;;1.10;100.00;101036.19;5031642;28;20242;-75
2023/01/26 02:59:55;;;;;;;19.15;9.85;;;;;;;1.14;100.00;101033.56;5022505;28;20239;-74
2023/01/26 03:02:22;;;;;;;17.02;10.15;;;;;;;1.14;100.00;101038.88;5028744;28;20227;-74
2023/01/26 03:04:49;;;;;;;18.30;9.02;;;;;;;1.09;100.00;101029.13;5036915;28;20742;-75
2023/01/26 03:07:15;;;;;;;16.27;9.55;;;;;;;1.09;100.00;101026.47;5036265;28;20199;-74
2023/01/26 03:09:42;;;;;;;17.50;9.55;;;;;;;1.08;100.00;101025.56;5023312;28;20686;-74
2023/01/26 03:12:09;;;;;;;14.65;8.98;;;;;;;1.04;100.00;101027.34;5017420;28;20232;-74
2023/01/26 03:14:35;;;;;;;18.27;9.48;;;;;;;1.09;100.00;101023.81;5018552;28;20569;-74
2023/01/26 03:17:03;;;;;;;14.15;7.90;;;;;;;1.01;100.00;101024.66;5024766;28;20196;-75
2023/01/26 03:27:44;;;;;;;13.50;7.63;;;;;;;0.98;100.00;101011.38;5022863;28;20684;-75
2023/01/26 03:30:12;;;;;;;13.32;6.88;;;;;;;1.02;100.00;101015.84;5018222;28;20213;-75
2023/01/26 03:32:40;;;;;;;14.50;6.72;;;;;;;1.01;100.00;101015.81;5018269;28;20233;-73
2023/01/26 03:35:13;;;;;;;9.48;6.25;;;;;;;0.93;100.00;101017.56;5034685;28;20222;-75
2023/01/26 03:37:42;;;;;;;12.57;6.90;;;;;;;0.85;100.00;101009.56;5022779;28;20659;-74
2023/01/26 03:56:37;;;;;;;12.43;8.00;;;;;;;0.86;100.00;101000.75;5029597;28;20215;-75
2023/01/26 03:59:08;;;;;;;11.90;6.82;;;;;;;0.94;100.00;100998.13;5036602;28;20203;-74
2023/01/26 04:01:36;;;;;;;14.88;7.22;;;;;;;0.92;100.00;100989.25;5039307;28;20270;-75
2023/01/26 04:09:35;;;;;;;11.63;7.50;;;;;;;0.95;100.00;100991.91;5030373;28;20203;-74
2023/01/26 04:12:02;;;;;;;10.60;7.68;;;;;;;0.85;100.00;100980.41;5016394;28;20232;-75
2023/01/26 04:22:43;;;;;;;10.23;6.60;;;;;;;0.78;100.00;100975.97;5018077;28;20767;-75
2023/01/26 04:25:12;;;;;;;15.20;8.52;;;;;;;0.80;100.00;100968.91;5024862;28;20196;-74
2023/01/26 04:27:39;;;;;;;13.00;8.02;;;;;;;0.74;100.00;100968.88;5024776;28;20209;-74
2023/01/26 04:30:07;;;;;;;13.23;8.32;;;;;;;0.71;100.00;100971.50;5016298;28;20725;-75
2023/01/26 04:32:33;;;;;;;12.30;8.15;;;;;;;0.69;100.00;100971.50;5015866;28;20233;-74
2023/01/26 04:35:01;;;;;;;48.65;24.35;;;;;;;0.63;100.00;100968.81;5031392;28;20201;-75
2023/01/26 04:37:28;;;;;;;16.70;9.98;;;;;;;0.61;100.00;100970.56;5023686;28;20200;-74
2023/01/26 04:39:54;;;;;;;13.95;8.20;;;;;;;0.66;100.00;100970.63;5016077;28;20216;-74
2023/01/26 04:42:23;;;;;;;11.25;6.90;;;;;;;0.58;100.00;100971.44;5028018;28;20224;-75
2023/01/26 04:44:49;;;;;;;12.25;7.72;;;;;;;0.57;100.00;100966.16;5021279;28;20254;-74
2023/01/26 04:47:16;;;;;;;18.40;9.32;;;;;;;0.50;100.00;100970.53;5033215;28;20208;-74
2023/01/26 04:49:43;;;;;;;16.65;10.10;;;;;;;0.59;100.00;100969.72;5021722;28;20254;-74
2023/01/26 04:52:10;;;;;;;17.77;10.10;;;;;;;0.61;100.00;100966.19;5022211;28;20219;-74
2023/01/26 04:54:37;;;;;;;13.35;8.65;;;;;;;0.66;100.00;100960.00;5033866;28;20219;-74
2023/01/26 04:57:04;;;;;;;14.27;8.77;;;;;;;0.71;100.00;100959.13;5024011;28;20283;-75
2023/01/26 04:59:30;;;;;;;12.05;7.47;;;;;;;0.77;100.00;100960.91;5035245;28;20203;-73
2023/01/26 05:01:57;;;;;;;16.80;9.85;;;;;;;0.77;100.00;100955.59;5036578;28;20233;-75
2023/01/26 05:04:23;;;;;;;15.45;9.40;;;;;;;0.72;100.00;100955.59;5027045;28;20196;-75
2023/01/26 05:06:50;;;;;;;13.55;8.32;;;;;;;0.74;100.00;100951.19;5018926;28;20205;-73
2023/01/26 05:09:18;;;;;;;14.13;7.90;;;;;;;0.68;100.00;100952.94;5023424;28;20200;-74
2023/01/26 05:11:45;;;;;;;13.10;8.30;;;;;;;0.74;100.00;100956.50;5019919;28;20427;-74
2023/01/26 05:14:12;;;;;;;14.00;7.93;;;;;;;0.77;100.00;100952.97;5022688;28;20272;-74
2023/01/26 05:16:38;;;;;;;12.13;8.75;;;;;;;0.75;100.00;100954.75;5025009;28;20211;-77
2023/01/26 05:19:05;;;;;;;14.40;8.25;;;;;;;0.61;100.00;100950.28;5043038;28;20197;-76
2023/01/26 05:21:31;;;;;;;11.50;7.60;;;;;;;0.63;100.00;100947.59;5038466;28;20216;-75
2023/01/26 05:23:58;;;;;;;17.95;8.50;;;;;;;0.57;100.00;100944.94;5025546;28;20297;-74
2023/01/26 05:26:26;;;;;;;12.68;7.50;;;;;;;0.50;100.00;100949.34;5026754;28;20622;-76
2023/01/26 05:28:52;;;;;;;14.13;8.15;;;;;;;0.55;100.00;100952.88;5023621;28;20200;-77
2023/01/26 05:31:19;;;;;;;13.88;8.60;;;;;;;0.57;100.00;100944.94;5021915;28;20243;-76
2023/01/26 05:33:45;;;;;;;14.50;9.18;;;;;;;0.58;100.00;100939.63;5026526;28;20200;-76
2023/01/26 05:36:12;;;;;;;17.08;8.95;;;;;;;0.62;100.00;100938.78;5042669;28;20203;-74
2023/01/26 05:38:39;;;;;;;13.38;8.25;;;;;;;0.70;100.00;100940.56;5039517;28;20250;-75
2023/01/26 05:41:07;;;;;;;11.52;7.68;;;;;;;0.71;100.00;100947.66;5040224;28;20255;-76
2023/01/26 05:43:34;;;;;;;12.45;8.05;;;;;;;0.75;100.00;100949.44;5039391;28;20221;-75
2023/01/26 05:46:01;;;;;;;13.88;8.90;;;;;;;0.78;100.00;100941.50;5038649;28;20271;-75
2023/01/26 05:48:28;;;;;;;16.40;8.38;;;;;;;0.79;100.00;100949.47;5031556;28;20250;-77
2023/01/26 05:50:57;;;;;;;14.77;8.60;;;;;;;0.82;100.00;100952.09;5023246;28;20233;-76
2023/01/26 05:53:23;;;;;;;13.52;7.78;;;;;;;0.83;100.00;100956.50;5018315;28;20223;-76
2023/01/26 05:55:50;;;;;;;13.57;7.93;;;;;;;0.86;100.00;100953.00;5018051;28;20206;-75
2023/01/26 05:58:16;;;;;;;11.68;7.57;;;;;;;0.89;100.00;100960.09;5019647;28;20638;-76
2023/01/26 06:00:45;;;;;;;12.65;8.07;;;;;;;0.88;100.00;100964.47;5037901;28;20614;-75
2023/01/26 06:03:12;;;;;;;13.10;8.95;;;;;;;0.92;100.00;100966.28;5038601;28;20215;-74
2023/01/26 06:05:39;;;;;;;15.95;8.52;;;;;;;0.92;100.00;100968.94;5052457;28;20255;-74
2023/01/26 06:08:05;;;;;;;8.95;7.07;;;;;;;0.86;100.00;100971.59;5056026;28;20216;-76
2023/01/26 06:10:32;;;;;;;12.48;7.72;;;;;;;0.87;100.00;100975.13;5058227;28;20224;-75
2023/01/26 06:13:00;;;;;;;14.40;8.27;;;;;;;0.90;100.00;100978.63;5057983;28;20307;-75
2023/01/26 06:15:27;;;;;;;12.63;7.47;;;;;;;0.89;100.00;100978.66;5046517;28;20208;-75
2023/01/26 06:17:54;;;;;;;14.90;7.78;;;;;;;0.93;100.00;100972.50;5041789;28;20209;-75
2023/01/26 06:20:21;;;;;;;12.65;8.75;;;;;;;0.94;100.00;100977.78;5040793;28;20698;-76
2023/01/26 06:22:48;;;;;;;12.45;8.02;;;;;;;0.87;100.00;100978.63;5038183;28;20223;-76
2023/01/26 06:25:14;;;;;;;10.60;7.38;;;;;;;0.87;100.00;100980.41;5036699;28;20196;-76
2023/01/26 06:27:41;;;;;;;13.43;8.15;;;;;;;0.83;100.00;100983.03;5036631;28;20543;-77
2023/01/26 06:30:11;;;;;;;12.60;7.60;;;;;;;0.82;100.00;100968.03;5036702;28;20214;-77
2023/01/26 06:32:37;;;;;;;16.60;9.75;;;;;;;0.86;100.00;100976.88;5065314;23;20325;-72
2023/01/26 06:35:25;;;;;;;12.35;8.00;;;;;;;0.85;100.00;100982.16;5057842;28;20213;-72
2023/01/26 06:37:52;;;;;;;9.35;7.40;;;;;;;0.85;100.00;100984.81;5058499;28;20196;-72
2023/01/26 06:40:19;;;;;;;12.40;7.72;;;;;;;0.83;100.00;100984.81;5056095;28;20215;-74
2023/01/26 06:42:49;;;;;;;12.20;7.55;;;;;;;0.81;100.00;100981.25;5056748;28;20307;-73
2023/01/26 06:45:17;;;;;;;12.73;7.68;;;;;;;0.88;100.00;100983.06;5055803;28;20211;-73
2023/01/26 06:47:45;;;;;;;17.02;9.55;;;;;;;0.82;100.00;100978.63;5055020;28;20205;-72
2023/01/26 06:50:15;;;;;;;13.02;8.35;;;;;;;0.88;100.00;100980.41;5060642;28;20638;-73
2023/01/26 06:52:43;;;;;;;13.50;7.75;;;;;;;0.93;100.00;100981.31;5056926;28;20230;-75
2023/01/26 06:55:17;;;;;;;13.55;7.45;;;;;;;0.90;100.00;100983.94;5058530;28;20260;-73
2023/01/26 06:57:50;;;;;;;11.93;7.05;;;;;;;0.85;100.00;100983.06;5060915;28;20226;-75
2023/01/26 07:00:18;;;;;;;10.02;7.05;;;;;;;0.86;100.00;100986.59;5064703;28;20199;-73
2023/01/26 07:02:45;;;;;;;14.70;7.93;;;;;;;0.86;100.00;100982.19;5060266;28;20270;-75
2023/01/26 07:05:13;;;;;;;12.95;7.00;;;;;;;0.87;100.00;100986.59;5058780;28;20702;-73
2023/01/26 07:07:39;;;;;;;14.15;9.80;;;;;;;0.91;100.00;100991.03;5061356;28;20275;-74
2023/01/26 07:10:07;;;;;;;22.85;10.80;;;;;;;0.92;100.00;101000.75;5067936;28;20295;-73
2023/01/26 07:12:40;;;;;;;10.75;7.13;;;;;;;0.94;100.00;100993.69;5068159;28;20313;-72
2023/01/26 07:15:08;;;;;;;14.77;8.65;;;;;;;0.89;100.00;100998.09;5076609;28;20198;-73
2023/01/26 07:17:34;;;;;;;14.32;7.18;;;;;;;0.82;100.00;101001.63;5076902;28;20219;-72
2023/01/26 07:20:01;;;;;;;14.73;7.03;;;;;;;0.76;100.00;100998.94;5137666;22;20287;-74
2023/01/26 07:22:29;;;;;;;11.80;7.82;;;;;;;0.78;100.00;101007.78;5069718;28;20222;-76
2023/01/26 07:24:56;;;;;;;13.07;7.85;;;;;;;0.76;100.00;101014.84;5063008;28;20284;-75
2023/01/26 07:27:22;;;;;;;10.75;7.20;;;;;;;0.66;100.00;101010.38;5062215;28;20202;-75
2023/01/26 07:29:50;;;;;;;11.68;7.60;;;;;;;0.60;100.00;101008.56;5057510;28;20205;-72
2023/01/26 07:32:16;;;;;;;11.15;7.30;;;;;;;0.65;100.00;101009.47;5058488;28;20228;-73
2023/01/26 07:34:43;;;;;;;12.20;7.53;;;;;;;0.63;100.00;101019.19;5055128;28;20204;-73
2023/01/26 07:37:09;;;;;;;13.60;8.20;;;;;;;0.58;100.00;101011.22;5057314;28;20234;-74
2023/01/26 07:39:37;;;;;;;14.73;8.27;;;;;;;0.64;100.00;101018.31;5053883;28;20364;-74
2023/01/26 07:42:04;;;;;;;15.88;8.55;;;;;;;0.56;100.00;101012.97;5055828;28;20225;-75
2023/01/26 07:44:30;;;;;;;14.13;8.45;;;;;;;0.61;100.00;101021.84;5056427;28;20208;-73
2023/01/26 07:46:57;;;;;;;12.90;8.68;;;;;;;0.70;100.00;101017.44;5058472;28;20637;-73
2023/01/26 07:49:24;;;;;;;12.93;8.50;;;;;;;0.64;100.00;101025.41;5055499;28;20209;-75
2023/01/26 07:51:51;;;;;;;12.15;7.00;;;;;;;0.65;100.00;101016.53;5057100;28;20740;-74
2023/01/26 07:54:17;;;;;;;11.38;7.85;;;;;;;0.71;100.00;101021.91;5055104;28;20214;-73
2023/01/26 07:56:45;;;;;;;12.20;7.43;;;;;;;0.71;100.00;101017.47;5054840;28;20696;-72
2023/01/26 07:59:12;;;;;;;13.32;8.10;;;;;;;0.74;100.00;101019.25;5056123;28;20210;-72
2023/01/26 08:01:39;;;;;;;11.25;6.70;;;;;;;0.75;100.00;101026.34;5059126;28;20227;-72
2023/01/26 08:04:06;;;;;;;10.18;7.15;;;;;;;0.59;100.00;101026.25;5059095;28;20201;-73
2023/01/26 08:06:32;;;;;;;10.43;7.20;;;;;;;0.56;100.00;101028.88;5056791;28;20205;-74
2023/01/26 08:08:59;;;;;;;13.38;7.55;;;;;;;0.55;100.00;101027.09;5056826;28;20201;-74
2023/01/26 08:11:25;;;;;;;9.77;6.85;;;;;;;0.54;100.00;101030.66;5059654;28;20795;-74
2023/01/26 08:13:54;;;;;;;10.25;6.45;;;;;;;0.50;100.00;101034.16;5061424;28;20225;-72
2023/01/26 08:16:21;;;;;;;9.02;6.57;;;;;;;0.51;100.00;101041.22;5058019;28;20200;-72
2023/01/26 08:18:48;;;;;;;9.95;6.25;;;;;;;0.49;100.00;101034.13;5054005;28;20215;-72
2023/01/26 08:21:16;;;;;;;8.43;6.32;;;;;;;0.53;100.00;101038.59;5053065;28;20241;-72
2023/01/26 08:23:43;;;;;;;9.60;6.55;;;;;;;0.52;100.00;101036.78;5053332;28;20200;-72
2023/01/26 08:26:12;;;;;;;9.98;6.63;;;;;;;0.45;100.00;101035.88;5052945;28;20584;-75
2023/01/26 08:28:39;;;;;;;10.15;6.45;;;;;;;0.51;100.00;101042.97;5053047;28;20295;-72
2023/01/26 08:31:10;;;;;;;8.80;6.75;;;;;;;0.56;100.00;101044.78;5055561;28;20201;-73
2023/01/26 08:33:37;;;;;;;10.30;7.72;;;;;;;0.62;100.00;101042.16;5054872;28;20237;-72
2023/01/26 08:36:05;;;;;;;9.35;6.70;;;;;;;0.65;100.00;101049.25;5058903;28;20271;-72
2023/01/26 08:38:32;;;;;;;10.98;6.60;;;;;;;0.66;100.00;101047.50;5055096;28;20558;-72
2023/01/26 08:40:59;;;;;;;8.88;6.63;;;;;;;0.67;100.00;101044.84;5053602;28;20296;-72
2023/01/26 08:43:25;;;;;;;11.30;7.35;;;;;;;0.64;100.00;101046.59;5052939;28;20209;-73
2023/01/26 08:45:52;;;;;;;12.23;7.32;;;;;;;0.65;100.00;101046.59;5053242;28;20210;-72
2023/01/26 08:48:20;;;;;;;11.00;7.60;;;;;;;0.61;100.00;101045.72;5052694;28;20199;-72
2023/01/26 08:50:47;;;;;;;8.23;6.30;;;;;;;0.56;100.00;101044.78;5055094;28;20207;-73
2023/01/26 08:53:13;;;;;;;13.35;7.13;;;;;;;0.52;100.00;101050.03;5055568;28;20612;-74
2023/01/26 08:55:40;;;;;;;8.45;6.35;;;;;;;0.51;100.00;101057.13;5056836;28;20214;-73
2023/01/26 08:58:06;;;;;;;8.15;6.40;;;;;;;0.53;100.00;101047.41;5056089;28;20211;-73
2023/01/26 09:00:33;;;;;;;11.40;6.68;;;;;;;0.65;100.00;101051.00;5063684;28;20696;-71
2023/01/26 09:03:00;;;;;;;11.27;6.30;;;;;;;0.62;100.00;101044.81;5064312;28;20292;-72
2023/01/26 09:05:32;;;;;;;10.25;6.75;;;;;;;0.64;100.00;101049.25;5057925;28;20205;-71
2023/01/26 09:07:59;;;;;;;10.40;6.50;;;;;;;0.58;100.00;101052.75;5055528;28;20272;-71
2023/01/26 09:10:25;;;;;;;10.40;6.68;;;;;;;0.48;100.00;101057.09;5056073;28;20772;-72
2023/01/26 09:12:52;;;;;;;10.00;6.32;;;;;;;0.59;100.00;101060.72;5057120;28;20578;-74
2023/01/26 09:15:19;;;;;;;9.93;7.50;;;;;;;0.66;100.00;101056.34;5056264;28;20203;-71
2023/01/26 09:17:48;;;;;;;10.70;7.57;;;;;;;0.62;100.00;101055.41;5054372;28;20625;-75
2023/01/26 09:20:14;;;;;;;11.00;7.80;;;;;;;0.71;100.00;101053.72;5056374;28;20692;-73
2023/01/26 09:22:42;;;;;;;10.80;7.05;;;;;;;0.76;100.00;101058.13;5062049;28;20221;-72
2023/01/26 09:25:10;;;;;;;11.45;7.05;;;;;;;0.85;100.00;101059.97;5058519;28;20699;-72
2023/01/26 09:27:37;;;;;;;11.02;7.00;;;;;;;0.87;100.00;101052.91;5055911;28;20210;-72
2023/01/26 09:30:04;;;;;;;12.45;7.82;;;;;;;0.90;100.00;101055.56;5057047;28;20225;-74
2023/01/26 09:32:31;;;;;;;11.00;7.47;;;;;;;0.92;100.00;101055.56;5055934;28;20237;-73
2023/01/26 09:34:58;;;;;;;10.60;7.75;;;;;;;0.87;100.00;101067.94;5055821;28;20203;-73
2023/01/26 09:37:24;;;;;;;10.20;6.97;;;;;;;0.87;100.00;101060.84;5057843;28;20202;-73
2023/01/26 09:39:52;;;;;;;12.43;8.25;;;;;;;0.92;100.00;101058.22;5058231;28;20211;-73
2023/01/26 09:42:32;;;;;;;11.60;7.82;;;;;;;0.88;100.00;101059.97;5059234;28;20243;-73
2023/01/26 09:45:15;;;;;;;10.90;7.45;;;;;;;0.87;100.00;101055.56;5058530;28;20640;-73
2023/01/26 09:47:56;;;;;;;11.20;7.45;;;;;;;0.86;100.00;101053.78;5055683;28;20564;-72
2023/01/26 09:50:27;;;;;;;12.75;9.20;;;;;;;0.96;100.00;101044.97;5056511;28;20202;-73
2023/01/26 09:52:56;;;;;;;10.85;7.97;;;;;;;0.99;100.00;101054.72;5057503;28;20240;-73
2023/01/26 09:55:25;;;;;;;12.40;8.40;;;;;;;0.90;100.00;101049.38;5058724;28;20206;-73
2023/01/26 09:57:56;;;;;;;9.65;7.20;;;;;;;0.97;100.00;101061.78;5055431;28;20579;-74
2023/01/26 10:00:29;;;;;;;10.30;7.32;;;;;;;0.99;100.00;101042.31;5055524;28;20211;-73
2023/01/26 10:03:08;;;;;;;11.43;8.38;;;;;;;1.08;100.00;101048.56;5055205;28;20219;-73
2023/01/26 10:05:41;;;;;;;11.15;7.32;;;;;;;1.14;100.00;101049.47;5054980;28;20561;-75
2023/01/26 10:08:11;;;;;;;12.60;9.13;;;;;;;1.15;100.00;101045.03;5054698;28;20198;-72
2023/01/26 10:10:44;;;;;;;20.90;11.95;;;;;;;1.12;100.00;101042.41;5055541;28;20201;-74
2023/01/26 10:13:14;;;;;;;12.05;8.35;;;;;;;1.07;100.00;101046.81;5056418;28;20232;-75
2023/01/26 10:15:43;;;;;;;11.38;7.95;;;;;;;1.06;100.00;101040.59;5057016;28;20207;-72
2023/01/26 10:18:17;;;;;;;14.68;8.35;;;;;;;1.07;100.00;101037.06;5054530;28;20306;-74
2023/01/26 10:20:47;;;;;;;15.82;9.15;;;;;;;1.11;100.00;101030.91;5054859;28;20649;-72
2023/01/26 10:23:17;;;;;;;16.55;10.05;;;;;;;1.13;100.00;101039.75;5055403;28;20222;-72
2023/01/26 10:25:46;;;;;;;15.57;9.40;;;;;;;1.31;100.00;101043.31;5054891;28;20207;-72
2023/01/26 10:28:15;;;;;;;14.85;11.02;;;;;;;1.32;100.00;101032.72;5054021;28;20200;-72
2023/01/26 10:30:43;;;;;;;16.95;10.43;;;;;;;1.36;100.00;101028.31;5054712;28;20205;-73
2023/01/26 10:33:15;;;;;;;12.00;8.73;;;;;;;1.34;100.00;101019.47;5054458;28;20232;-73
2023/01/26 10:35:42;;;;;;;15.95;10.30;;;;;;;1.28;100.00;101020.31;5055166;28;20612;-72
2023/01/26 10:38:38;;;;;;;14.05;10.25;;;;;;;1.36;100.00;101023.00;5052747;28;20200;-72
2023/01/26 10:41:08;;;;;;;17.33;11.45;;;;;;;1.38;100.00;101011.50;5063232;28;20214;-73
2023/01/26 10:43:40;;;;;;;13.27;9.50;;;;;;;1.42;100.00;101017.69;5059961;28;20200;-73
2023/01/26 10:46:06;;;;;;;14.05;10.40;;;;;;;1.26;100.00;101016.78;5059627;28;20192;-72
2023/01/26 10:48:33;;;;;;;14.75;10.25;;;;;;;1.19;100.00;101021.19;5058124;28;20207;-73
2023/01/26 10:51:16;;;;;;;11.18;9.23;;;;;;;1.23;100.00;101019.44;5065917;28;20208;-71
2023/01/26 10:53:42;;;;;;;15.80;10.38;;;;;;;1.29;100.00;101014.16;5064864;28;20228;-71
2023/01/26 10:56:15;;;;;;;15.90;10.68;;;;;;;1.18;100.00;101008.81;5060686;28;20215;-71
2023/01/26 10:58:47;;;;;;;13.25;9.75;;;;;;;1.15;100.00;101014.09;5056161;28;20203;-73
2023/01/26 11:01:14;;;;;;;13.93;9.65;;;;;;;0.97;100.00;101009.63;5056177;28;20223;-73
2023/01/26 11:03:42;;;;;;;13.20;8.80;;;;;;;0.93;100.00;101010.50;5054729;28;20245;-72
2023/01/26 11:06:14;;;;;;;12.88;9.68;;;;;;;0.86;100.00;101008.72;5055180;28;20549;-73
2023/01/26 11:08:42;;;;;;;15.05;10.02;;;;;;;1.03;100.00;101006.09;5055506;28;20188;-72
2023/01/26 11:11:26;;;;;;;13.45;9.60;;;;;;;1.04;100.00;101005.22;5055164;28;20266;-74
2023/01/26 11:14:10;;;;;;;14.35;11.05;;;;;;;0.99;100.00;101002.53;5056838;28;20584;-74
2023/01/26 11:16:38;;;;;;;15.25;9.23;;;;;;;0.99;100.00;101001.66;5056477;28;20200;-73
2023/01/26 11:19:11;;;;;;;15.50;10.57;;;;;;;0.95;100.00;101003.44;5054985;28;20195;-73
2023/01/26 11:21:41;;;;;;;16.42;10.45;;;;;;;0.89;100.00;100995.44;5055582;28;20232;-71
2023/01/26 11:24:16;;;;;;;17.08;11.20;;;;;;;0.79;100.00;100993.63;5055604;28;20202;-74
2023/01/26 11:27:20;;;;;;;17.17;11.82;;;;;;;0.87;100.00;100988.38;5055106;28;20186;-74
2023/01/26 11:30:06;;;;;;;15.00;10.38;;;;;;;0.77;100.00;100985.69;5063542;28;20192;-73
2023/01/26 11:32:45;;;;;;;13.15;9.52;;;;;;;0.92;100.00;100979.53;5063075;28;20224;-71
2023/01/26 11:35:22;;;;;;;15.07;10.35;;;;;;;1.00;100.00;100975.16;5060461;28;20330;-73
2023/01/26 11:37:58;;;;;;;15.80;10.27;;;;;;;1.19;100.00;100975.19;5062870;28;20206;-74
2023/01/26 11:40:32;;;;;;;18.15;10.52;;;;;;;1.16;100.00;100970.78;5058099;28;20191;-73
2023/01/26 11:43:15;;;;;;;19.13;10.35;;;;;;;1.20;100.00;100969.03;5059940;28;20227;-76
2023/01/26 11:45:59;;;;;;;15.85;10.77;;;;;;;1.40;100.00;100969.03;5060396;28;20188;-73
2023/01/26 11:48:36;;;;;;;13.65;9.80;;;;;;;1.65;100.00;100978.81;5054822;28;20203;-71
2023/01/26 11:51:11;;;;;;;14.57;9.50;;;;;;;1.57;100.00;100963.75;5054905;28;20188;-73
2023/01/26 11:54:08;;;;;;;18.33;11.13;;;;;;;2.02;100.00;100956.66;5054458;28;20297;-74
2023/01/26 11:56:45;;;;;;;16.60;10.07;;;;;;;2.07;100.00;100953.09;5053868;28;20296;-73
2023/01/26 11:59:17;;;;;;;13.25;9.75;;;;;;;2.42;100.00;100952.13;5052756;28;20571;-72
2023/01/26 12:01:50;;;;;;;14.60;9.55;;;;;;;2.49;100.00;100953.88;5053619;28;20329;-73
2023/01/26 12:04:19;;;;;;;12.20;9.80;;;;;;;2.42;100.00;100948.56;5053086;28;20207;-73
2023/01/26 12:06:51;;;;;;;15.95;10.20;;;;;;;2.41;100.00;100938.84;5053965;28;20221;-73
2023/01/26 12:09:22;;;;;;;11.98;9.23;;;;;;;2.20;100.00;100947.75;5052704;28;20253;-74